sensor_id;sensor_type;location;lat;lon;timestamp;pressure;altitude;pressure_sealevel;temperature;humidity
80118;BME280;69424;48.770;-1.564;2024-03-23T00:54:25;102082.94;;;8.71;75.03
80118;BME280;69424;48.770;-1.564;2024-03-23T00:55:13;102083.00;;;8.73;74.64
80118;BME280;69424;48.770;-1.564;2024-03-23T00:56:02;102085.53;;;8.74;73.93
80118;BME280;69424;48.770;-1.564;2024-03-23T00:56:50;102088.58;;;8.75;72.10
80118;BME280;69424;48.770;-1.564;2024-03-23T00:57:38;102083.71;;;8.77;71.77
80118;BME280;69424;48.770;-1.564;2024-03-23T00:58:26;102080.92;;;8.78;71.31
80118;BME280;69424;48.770;-1.564;2024-03-23T00:59:14;102086.63;;;8.80;71.76
80118;BME280;69424;48.770;-1.564;2024-03-23T01:00:02;102090.35;;;8.80;71.28
80118;BME280;69424;48.770;-1.564;2024-03-23T01:00:50;102090.71;;;8.80;71.49
80118;BME280;69424;48.770;-1.564;2024-03-23T01:01:38;102087.84;;;8.79;70.71
80118;BME280;69424;48.770;-1.564;2024-03-23T01:02:26;102093.52;;;8.80;70.55
80118;BME280;69424;48.770;-1.564;2024-03-23T01:03:14;102096.65;;;8.79;71.13
80118;BME280;69424;48.770;-1.564;2024-03-23T01:04:02;102093.44;;;8.78;71.06
80118;BME280;69424;48.770;-1.564;2024-03-23T01:04:50;102093.57;;;8.77;70.62
80118;BME280;69424;48.770;-1.564;2024-03-23T01:05:38;102087.73;;;8.76;70.11
80118;BME280;69424;48.770;-1.564;2024-03-23T01:06:26;102086.08;;;8.75;70.02
80118;BME280;69424;48.770;-1.564;2024-03-23T01:07:14;102086.90;;;8.73;70.26
80118;BME280;69424;48.770;-1.564;2024-03-23T01:08:02;102081.41;;;8.73;70.99
80118;BME280;69424;48.770;-1.564;2024-03-23T01:08:49;102084.04;;;8.72;71.21
80118;BME280;69424;48.770;-1.564;2024-03-23T01:09:37;102083.65;;;8.71;71.30
80118;BME280;69424;48.770;-1.564;2024-03-23T01:10:26;102081.34;;;8.71;71.65
80118;BME280;69424;48.770;-1.564;2024-03-23T01:11:14;102083.59;;;8.70;72.04
80118;BME280;69424;48.770;-1.564;2024-03-23T01:12:02;102088.50;;;8.69;72.42
80118;BME280;69424;48.770;-1.564;2024-03-23T01:12:50;102085.52;;;8.69;72.72
80118;BME280;69424;48.770;-1.564;2024-03-23T01:13:38;102082.38;;;8.70;73.01
80118;BME280;69424;48.770;-1.564;2024-03-23T01:14:26;102081.67;;;8.71;73.16
80118;BME280;69424;48.770;-1.564;2024-03-23T01:15:14;102085.77;;;8.72;73.42
80118;BME280;69424;48.770;-1.564;2024-03-23T01:16:02;102081.05;;;8.72;73.64
80118;BME280;69424;48.770;-1.564;2024-03-23T01:16:50;102086.23;;;8.74;73.71
80118;BME280;69424;48.770;-1.564;2024-03-23T01:17:38;102082.55;;;8.75;73.41
80118;BME280;69424;48.770;-1.564;2024-03-23T01:18:25;102084.70;;;8.75;73.50
80118;BME280;69424;48.770;-1.564;2024-03-23T01:19:16;102085.98;;;8.77;73.41
80118;BME280;69424;48.770;-1.564;2024-03-23T01:20:05;102084.23;;;8.77;73.52
80118;BME280;69424;48.770;-1.564;2024-03-23T01:20:53;102087.08;;;8.78;73.46
80118;BME280;69424;48.770;-1.564;2024-03-23T01:21:41;102083.06;;;8.79;73.42
80118;BME280;69424;48.770;-1.564;2024-03-23T01:22:30;102085.17;;;8.79;73.10
80118;BME280;69424;48.770;-1.564;2024-03-23T01:23:18;102083.77;;;8.79;73.29
80118;BME280;69424;48.770;-1.564;2024-03-23T01:24:06;102085.89;;;8.79;73.51
80118;BME280;69424;48.770;-1.564;2024-03-23T01:24:56;102084.48;;;8.79;73.38
80118;BME280;69424;48.770;-1.564;2024-03-23T01:25:51;102084.66;;;8.79;73.31
80118;BME280;69424;48.770;-1.564;2024-03-23T01:26:40;102083.77;;;8.79;73.26
80118;BME280;69424;48.770;-1.564;2024-03-23T01:27:27;102084.83;;;8.79;73.23
80118;BME280;69424;48.770;-1.564;2024-03-23T01:28:15;102084.13;;;8.79;73.27
80118;BME280;69424;48.770;-1.564;2024-03-23T01:29:03;102078.28;;;8.78;73.52
80118;BME280;69424;48.770;-1.564;2024-03-23T01:29:51;102077.40;;;8.78;73.29
80118;BME280;69424;48.770;-1.564;2024-03-23T01:30:40;102074.25;;;8.79;73.94
80118;BME280;69424;48.770;-1.564;2024-03-23T01:31:28;102074.80;;;8.79;74.16
80118;BME280;69424;48.770;-1.564;2024-03-23T01:32:15;102074.31;;;8.80;74.38
80118;BME280;69424;48.770;-1.564;2024-03-23T01:33:04;102080.18;;;8.82;74.53
80118;BME280;69424;48.770;-1.564;2024-03-23T01:33:51;102078.30;;;8.84;74.40
80118;BME280;69424;48.770;-1.564;2024-03-23T01:34:40;102077.48;;;8.85;74.59
80118;BME280;69424;48.770;-1.564;2024-03-23T01:35:27;102077.38;;;8.87;74.66
80118;BME280;69424;48.770;-1.564;2024-03-23T01:36:15;102080.95;;;8.89;74.53
80118;BME280;69424;48.770;-1.564;2024-03-23T01:37:03;102079.24;;;8.90;74.32
80118;BME280;69424;48.770;-1.564;2024-03-23T01:37:51;102080.34;;;8.91;74.39
80118;BME280;69424;48.770;-1.564;2024-03-23T01:38:39;102081.44;;;8.92;74.71
80118;BME280;69424;48.770;-1.564;2024-03-23T01:39:27;102085.71;;;8.93;74.52
80118;BME280;69424;48.770;-1.564;2024-03-23T01:40:16;102095.98;;;8.94;74.36
80118;BME280;69424;48.770;-1.564;2024-03-23T01:41:04;102106.39;;;8.94;73.59
80118;BME280;69424;48.770;-1.564;2024-03-23T01:41:56;102107.34;;;8.91;72.51
80118;BME280;69424;48.770;-1.564;2024-03-23T01:43:45;102098.94;;;8.84;72.46
80118;BME280;69424;48.770;-1.564;2024-03-23T01:44:33;102103.19;;;8.79;73.27
80118;BME280;69424;48.770;-1.564;2024-03-23T01:45:20;102101.77;;;8.75;73.85
80118;BME280;69424;48.770;-1.564;2024-03-23T01:46:08;102094.34;;;8.70;74.13
80118;BME280;69424;48.770;-1.564;2024-03-23T01:46:56;102096.98;;;8.65;74.62
80118;BME280;69424;48.770;-1.564;2024-03-23T01:47:44;102102.59;;;8.59;75.46
80118;BME280;69424;48.770;-1.564;2024-03-23T01:48:32;102100.50;;;8.55;75.59
80118;BME280;69424;48.770;-1.564;2024-03-23T01:49:20;102102.81;;;8.52;75.96
80118;BME280;69424;48.770;-1.564;2024-03-23T01:50:08;102095.21;;;8.47;75.82
80118;BME280;69424;48.770;-1.564;2024-03-23T01:50:58;102095.60;;;8.43;75.65
80118;BME280;69424;48.770;-1.564;2024-03-23T01:51:46;102096.13;;;8.39;75.35
80118;BME280;69424;48.770;-1.564;2024-03-23T01:52:34;102096.32;;;8.35;75.09
80118;BME280;69424;48.770;-1.564;2024-03-23T01:53:22;102092.50;;;8.32;74.69
80118;BME280;69424;48.770;-1.564;2024-03-23T01:54:10;102092.87;;;8.28;74.38
80118;BME280;69424;48.770;-1.564;2024-03-23T01:54:58;102088.23;;;8.26;74.72
80118;BME280;69424;48.770;-1.564;2024-03-23T01:55:47;102091.41;;;8.22;75.05
80118;BME280;69424;48.770;-1.564;2024-03-23T01:56:35;102092.09;;;8.21;75.00
80118;BME280;69424;48.770;-1.564;2024-03-23T01:57:24;102088.45;;;8.19;75.27
80118;BME280;69424;48.770;-1.564;2024-03-23T01:58:12;102086.26;;;8.17;75.06
80118;BME280;69424;48.770;-1.564;2024-03-23T01:59:00;102090.27;;;8.16;75.41
80118;BME280;69424;48.770;-1.564;2024-03-23T01:59:48;102088.77;;;8.14;75.70
80118;BME280;69424;48.770;-1.564;2024-03-23T02:00:40;102091.20;;;8.13;75.95
80118;BME280;69424;48.770;-1.564;2024-03-23T02:01:29;102089.15;;;8.10;75.30
80118;BME280;69424;48.770;-1.564;2024-03-23T02:02:17;102090.16;;;8.09;74.60
80118;BME280;69424;48.770;-1.564;2024-03-23T02:03:24;102089.21;;;8.07;74.59
80118;BME280;69424;48.770;-1.564;2024-03-23T02:04:12;102092.46;;;8.05;73.98
80118;BME280;69424;48.770;-1.564;2024-03-23T02:05:00;102089.58;;;8.03;73.83
80118;BME280;69424;48.770;-1.564;2024-03-23T02:05:49;102085.84;;;8.02;73.91
80118;BME280;69424;48.770;-1.564;2024-03-23T02:06:37;102088.11;;;8.02;73.98
80118;BME280;69424;48.770;-1.564;2024-03-23T02:07:25;102093.41;;;8.02;73.99
80118;BME280;69424;48.770;-1.564;2024-03-23T02:08:13;102091.48;;;8.02;73.90
80118;BME280;69424;48.770;-1.564;2024-03-23T02:09:02;102089.95;;;8.03;73.77
80118;BME280;69424;48.770;-1.564;2024-03-23T02:09:51;102089.79;;;8.04;73.34
80118;BME280;69424;48.770;-1.564;2024-03-23T02:10:40;102085.09;;;8.05;73.24
80118;BME280;69424;48.770;-1.564;2024-03-23T02:11:28;102084.45;;;8.07;73.36
80118;BME280;69424;48.770;-1.564;2024-03-23T02:12:17;102083.28;;;8.09;73.45
80118;BME280;69424;48.770;-1.564;2024-03-23T02:13:05;102084.95;;;8.11;73.66
80118;BME280;69424;48.770;-1.564;2024-03-23T02:13:53;102086.60;;;8.12;73.41
80118;BME280;69424;48.770;-1.564;2024-03-23T02:14:41;102084.14;;;8.12;73.87
80118;BME280;69424;48.770;-1.564;2024-03-23T02:15:28;102086.64;;;8.13;73.80
80118;BME280;69424;48.770;-1.564;2024-03-23T02:16:16;102084.38;;;8.14;73.64
80118;BME280;69424;48.770;-1.564;2024-03-23T02:17:04;102083.16;;;8.14;73.22
80118;BME280;69424;48.770;-1.564;2024-03-23T02:17:52;102083.69;;;8.15;72.49
80118;BME280;69424;48.770;-1.564;2024-03-23T02:18:39;102080.13;;;8.13;71.89
80118;BME280;69424;48.770;-1.564;2024-03-23T02:19:27;102083.48;;;8.14;72.00
80118;BME280;69424;48.770;-1.564;2024-03-23T02:20:15;102085.24;;;8.14;72.36
80118;BME280;69424;48.770;-1.564;2024-03-23T02:21:03;102084.73;;;8.14;72.67
80118;BME280;69424;48.770;-1.564;2024-03-23T02:21:51;102083.27;;;8.13;72.29
80118;BME280;69424;48.770;-1.564;2024-03-23T02:22:39;102087.11;;;8.12;72.25
80118;BME280;69424;48.770;-1.564;2024-03-23T02:23:27;102082.27;;;8.10;71.84
80118;BME280;69424;48.770;-1.564;2024-03-23T02:24:15;102083.61;;;8.08;71.83
80118;BME280;69424;48.770;-1.564;2024-03-23T02:25:04;102078.13;;;8.07;71.35
80118;BME280;69424;48.770;-1.564;2024-03-23T02:25:52;102077.53;;;8.06;71.34
80118;BME280;69424;48.770;-1.564;2024-03-23T02:26:43;102081.73;;;8.05;71.95
80118;BME280;69424;48.770;-1.564;2024-03-23T02:27:31;102077.64;;;8.04;72.20
80118;BME280;69424;48.770;-1.564;2024-03-23T02:28:20;102081.68;;;8.04;72.34
80118;BME280;69424;48.770;-1.564;2024-03-23T02:29:10;102080.27;;;8.04;72.50
80118;BME280;69424;48.770;-1.564;2024-03-23T02:29:57;102079.58;;;8.04;72.31
80118;BME280;69424;48.770;-1.564;2024-03-23T02:30:46;102079.24;;;8.04;72.55
80118;BME280;69424;48.770;-1.564;2024-03-23T02:31:34;102082.41;;;8.04;72.82
80118;BME280;69424;48.770;-1.564;2024-03-23T02:32:21;102080.86;;;8.05;73.10
80118;BME280;69424;48.770;-1.564;2024-03-23T02:33:09;102079.63;;;8.05;73.68
80118;BME280;69424;48.770;-1.564;2024-03-23T02:33:57;102077.20;;;8.06;73.87
80118;BME280;69424;48.770;-1.564;2024-03-23T02:34:45;102080.77;;;8.07;74.46
80118;BME280;69424;48.770;-1.564;2024-03-23T02:35:33;102080.10;;;8.08;74.59
80118;BME280;69424;48.770;-1.564;2024-03-23T02:36:21;102076.95;;;8.09;74.56
80118;BME280;69424;48.770;-1.564;2024-03-23T02:37:12;102082.87;;;8.12;75.57
80118;BME280;69424;48.770;-1.564;2024-03-23T02:37:59;102078.48;;;8.13;75.50
80118;BME280;69424;48.770;-1.564;2024-03-23T02:38:47;102075.04;;;8.14;75.70
80118;BME280;69424;48.770;-1.564;2024-03-23T02:39:35;102075.95;;;8.15;76.41
80118;BME280;69424;48.770;-1.564;2024-03-23T02:40:24;102077.09;;;8.17;76.64
80118;BME280;69424;48.770;-1.564;2024-03-23T02:41:12;102078.89;;;8.18;76.57
80118;BME280;69424;48.770;-1.564;2024-03-23T02:42:00;102080.55;;;8.19;76.99
80118;BME280;69424;48.770;-1.564;2024-03-23T02:42:48;102082.36;;;8.21;77.10
80118;BME280;69424;48.770;-1.564;2024-03-23T02:43:35;102085.23;;;8.22;77.39
80118;BME280;69424;48.770;-1.564;2024-03-23T02:44:23;102073.47;;;8.23;77.38
80118;BME280;69424;48.770;-1.564;2024-03-23T02:45:11;102066.80;;;8.24;77.45
80118;BME280;69424;48.770;-1.564;2024-03-23T02:45:59;102070.34;;;8.24;77.79
80118;BME280;69424;48.770;-1.564;2024-03-23T02:46:48;102072.34;;;8.26;77.97
80118;BME280;69424;48.770;-1.564;2024-03-23T02:47:36;102081.02;;;8.27;78.28
80118;BME280;69424;48.770;-1.564;2024-03-23T02:48:24;102094.13;;;8.29;78.29
80118;BME280;69424;48.770;-1.564;2024-03-23T02:49:13;102094.00;;;8.30;78.54
80118;BME280;69424;48.770;-1.564;2024-03-23T02:50:02;102081.38;;;8.31;77.97
80118;BME280;69424;48.770;-1.564;2024-03-23T02:50:50;102067.56;;;8.30;78.35
80118;BME280;69424;48.770;-1.564;2024-03-23T02:51:38;102070.45;;;8.27;78.24
80118;BME280;69424;48.770;-1.564;2024-03-23T02:52:26;102069.50;;;8.25;78.28
80118;BME280;69424;48.770;-1.564;2024-03-23T02:53:13;102067.83;;;8.23;78.21
80118;BME280;69424;48.770;-1.564;2024-03-23T02:54:02;102070.73;;;8.21;77.99
80118;BME280;69424;48.770;-1.564;2024-03-23T02:54:50;102069.94;;;8.18;78.13
80118;BME280;69424;48.770;-1.564;2024-03-23T02:55:37;102069.15;;;8.17;78.67
80118;BME280;69424;48.770;-1.564;2024-03-23T02:56:25;102068.15;;;8.14;78.47
80118;BME280;69424;48.770;-1.564;2024-03-23T02:57:13;102073.16;;;8.11;78.81
80118;BME280;69424;48.770;-1.564;2024-03-23T02:58:01;102072.70;;;8.08;79.20
80118;BME280;69424;48.770;-1.564;2024-03-23T02:58:49;102075.29;;;8.07;79.11
80118;BME280;69424;48.770;-1.564;2024-03-23T02:59:37;102075.04;;;8.05;79.70
80118;BME280;69424;48.770;-1.564;2024-03-23T03:00:25;102078.90;;;8.05;79.25
80118;BME280;69424;48.770;-1.564;2024-03-23T03:01:13;102081.21;;;8.05;79.01
80118;BME280;69424;48.770;-1.564;2024-03-23T03:02:04;102075.96;;;8.06;78.90
80118;BME280;69424;48.770;-1.564;2024-03-23T03:02:52;102071.94;;;8.07;78.94
80118;BME280;69424;48.770;-1.564;2024-03-23T03:03:40;102070.56;;;8.07;78.52
80118;BME280;69424;48.770;-1.564;2024-03-23T03:04:28;102072.36;;;8.09;78.36
80118;BME280;69424;48.770;-1.564;2024-03-23T03:05:16;102068.17;;;8.10;78.44
80118;BME280;69424;48.770;-1.564;2024-03-23T03:06:03;102067.68;;;8.11;78.23
80118;BME280;69424;48.770;-1.564;2024-03-23T03:06:51;102066.39;;;8.14;78.18
80118;BME280;69424;48.770;-1.564;2024-03-23T03:07:39;102067.04;;;8.16;78.41
80118;BME280;69424;48.770;-1.564;2024-03-23T03:08:29;102068.17;;;8.18;78.95
80118;BME280;69424;48.770;-1.564;2024-03-23T03:09:16;102075.14;;;8.21;78.67
80118;BME280;69424;48.770;-1.564;2024-03-23T03:10:04;102079.29;;;8.23;78.64
80118;BME280;69424;48.770;-1.564;2024-03-23T03:10:53;102083.73;;;8.24;78.03
80118;BME280;69424;48.770;-1.564;2024-03-23T03:11:41;102082.23;;;8.26;77.91
80118;BME280;69424;48.770;-1.564;2024-03-23T03:12:29;102072.08;;;8.28;77.01
80118;BME280;69424;48.770;-1.564;2024-03-23T03:13:17;102075.26;;;8.29;76.08
80118;BME280;69424;48.770;-1.564;2024-03-23T03:14:05;102073.14;;;8.29;76.04
80118;BME280;69424;48.770;-1.564;2024-03-23T03:14:54;102074.73;;;8.29;76.74
80118;BME280;69424;48.770;-1.564;2024-03-23T03:15:43;102079.72;;;8.30;76.65
80118;BME280;69424;48.770;-1.564;2024-03-23T03:16:31;102077.20;;;8.29;75.96
80118;BME280;69424;48.770;-1.564;2024-03-23T03:17:19;102079.10;;;8.28;74.81
80118;BME280;69424;48.770;-1.564;2024-03-23T03:18:07;102074.14;;;8.26;74.61
80118;BME280;69424;48.770;-1.564;2024-03-23T03:18:55;102082.05;;;8.26;74.38
80118;BME280;69424;48.770;-1.564;2024-03-23T03:19:43;102082.38;;;8.26;74.00
80118;BME280;69424;48.770;-1.564;2024-03-23T03:20:31;102080.20;;;8.24;73.25
80118;BME280;69424;48.770;-1.564;2024-03-23T03:21:19;102074.39;;;8.24;72.81
80118;BME280;69424;48.770;-1.564;2024-03-23T03:22:07;102081.59;;;8.24;73.36
80118;BME280;69424;48.770;-1.564;2024-03-23T03:22:54;102086.14;;;8.22;73.54
80118;BME280;69424;48.770;-1.564;2024-03-23T03:23:42;102085.76;;;8.22;73.11
80118;BME280;69424;48.770;-1.564;2024-03-23T03:24:32;102080.04;;;8.20;73.23
80118;BME280;69424;48.770;-1.564;2024-03-23T03:25:20;102085.66;;;8.19;73.45
80118;BME280;69424;48.770;-1.564;2024-03-23T03:26:08;102086.82;;;8.18;72.90
80118;BME280;69424;48.770;-1.564;2024-03-23T03:26:56;102086.80;;;8.17;73.18
80118;BME280;69424;48.770;-1.564;2024-03-23T03:27:45;102085.95;;;8.18;72.65
80118;BME280;69424;48.770;-1.564;2024-03-23T03:28:33;102087.55;;;8.18;72.27
80118;BME280;69424;48.770;-1.564;2024-03-23T03:29:22;102081.92;;;8.19;71.93
80118;BME280;69424;48.770;-1.564;2024-03-23T03:30:10;102084.08;;;8.20;72.16
80118;BME280;69424;48.770;-1.564;2024-03-23T03:30:59;102082.15;;;8.20;72.59
80118;BME280;69424;48.770;-1.564;2024-03-23T03:31:47;102084.13;;;8.21;72.44
80118;BME280;69424;48.770;-1.564;2024-03-23T03:32:37;102080.67;;;8.22;72.57
80118;BME280;69424;48.770;-1.564;2024-03-23T03:33:26;102083.88;;;8.23;72.69
80118;BME280;69424;48.770;-1.564;2024-03-23T03:34:14;102087.05;;;8.24;72.84
80118;BME280;69424;48.770;-1.564;2024-03-23T03:35:03;102081.41;;;8.23;72.12
80118;BME280;69424;48.770;-1.564;2024-03-23T03:35:50;102078.06;;;8.24;72.12
80118;BME280;69424;48.770;-1.564;2024-03-23T03:36:39;102079.09;;;8.22;71.85
80118;BME280;69424;48.770;-1.564;2024-03-23T03:37:27;102076.58;;;8.22;71.39
80118;BME280;69424;48.770;-1.564;2024-03-23T03:38:14;102074.29;;;8.21;71.59
80118;BME280;69424;48.770;-1.564;2024-03-23T03:39:02;102076.73;;;8.21;71.60
80118;BME280;69424;48.770;-1.564;2024-03-23T03:39:51;102078.10;;;8.20;71.30
80118;BME280;69424;48.770;-1.564;2024-03-23T03:40:39;102080.53;;;8.19;71.49
80118;BME280;69424;48.770;-1.564;2024-03-23T03:41:27;102076.48;;;8.19;71.82
80118;BME280;69424;48.770;-1.564;2024-03-23T03:42:15;102079.33;;;8.20;72.19
80118;BME280;69424;48.770;-1.564;2024-03-23T03:43:03;102077.87;;;8.19;72.34
80118;BME280;69424;48.770;-1.564;2024-03-23T03:43:51;102078.61;;;8.20;72.24
80118;BME280;69424;48.770;-1.564;2024-03-23T03:44:39;102078.80;;;8.20;72.05
80118;BME280;69424;48.770;-1.564;2024-03-23T03:45:27;102078.14;;;8.21;71.80
80118;BME280;69424;48.770;-1.564;2024-03-23T03:46:15;102079.07;;;8.22;72.12
80118;BME280;69424;48.770;-1.564;2024-03-23T03:47:03;102082.46;;;8.23;71.78
80118;BME280;69424;48.770;-1.564;2024-03-23T03:47:50;102081.75;;;8.23;71.40
80118;BME280;69424;48.770;-1.564;2024-03-23T03:48:38;102077.56;;;8.24;70.71
80118;BME280;69424;48.770;-1.564;2024-03-23T03:49:26;102090.62;;;8.24;70.28
80118;BME280;69424;48.770;-1.564;2024-03-23T03:50:14;102087.97;;;8.24;69.12
80118;BME280;69424;48.770;-1.564;2024-03-23T03:51:03;102083.80;;;8.26;69.65
80118;BME280;69424;48.770;-1.564;2024-03-23T03:51:51;102079.39;;;8.26;70.25
80118;BME280;69424;48.770;-1.564;2024-03-23T03:52:39;102084.19;;;8.26;70.57
80118;BME280;69424;48.770;-1.564;2024-03-23T03:53:27;102084.86;;;8.26;70.93
80118;BME280;69424;48.770;-1.564;2024-03-23T03:54:14;102083.77;;;8.25;70.86
80118;BME280;69424;48.770;-1.564;2024-03-23T03:55:03;102081.45;;;8.24;70.37
80118;BME280;69424;48.770;-1.564;2024-03-23T03:55:51;102081.08;;;8.24;70.36
80118;BME280;69424;48.770;-1.564;2024-03-23T03:56:39;102085.81;;;8.23;70.21
80118;BME280;69424;48.770;-1.564;2024-03-23T03:57:27;102085.95;;;8.23;70.02
80118;BME280;69424;48.770;-1.564;2024-03-23T03:58:14;102083.30;;;8.22;70.08
80118;BME280;69424;48.770;-1.564;2024-03-23T03:59:03;102082.19;;;8.21;70.14
80118;BME280;69424;48.770;-1.564;2024-03-23T03:59:50;102081.27;;;8.20;70.29
80118;BME280;69424;48.770;-1.564;2024-03-23T04:00:38;102084.60;;;8.19;70.34
80118;BME280;69424;48.770;-1.564;2024-03-23T04:01:26;102087.75;;;8.19;70.51
80118;BME280;69424;48.770;-1.564;2024-03-23T04:02:14;102083.16;;;8.19;70.73
80118;BME280;69424;48.770;-1.564;2024-03-23T04:03:02;102089.36;;;8.19;70.53
80118;BME280;69424;48.770;-1.564;2024-03-23T04:03:51;102088.27;;;8.19;70.27
80118;BME280;69424;48.770;-1.564;2024-03-23T04:04:38;102094.17;;;8.21;70.66
80118;BME280;69424;48.770;-1.564;2024-03-23T04:05:26;102086.98;;;8.22;70.17
80118;BME280;69424;48.770;-1.564;2024-03-23T04:06:19;102093.75;;;8.23;69.69
80118;BME280;69424;48.770;-1.564;2024-03-23T04:07:06;102089.39;;;8.25;69.45
80118;BME280;69424;48.770;-1.564;2024-03-23T04:07:54;102089.26;;;8.25;68.97
80118;BME280;69424;48.770;-1.564;2024-03-23T04:08:42;102086.47;;;8.27;69.35
80118;BME280;69424;48.770;-1.564;2024-03-23T04:09:30;102084.54;;;8.27;69.66
80118;BME280;69424;48.770;-1.564;2024-03-23T04:10:18;102084.05;;;8.28;70.06
80118;BME280;69424;48.770;-1.564;2024-03-23T04:11:06;102079.83;;;8.28;70.55
80118;BME280;69424;48.770;-1.564;2024-03-23T04:11:53;102081.23;;;8.28;70.50
80118;BME280;69424;48.770;-1.564;2024-03-23T04:12:43;102083.93;;;8.29;71.03
80118;BME280;69424;48.770;-1.564;2024-03-23T04:13:31;102084.10;;;8.29;71.27
80118;BME280;69424;48.770;-1.564;2024-03-23T04:14:20;102085.67;;;8.29;71.79
80118;BME280;69424;48.770;-1.564;2024-03-23T04:15:07;102084.95;;;8.29;72.01
80118;BME280;69424;48.770;-1.564;2024-03-23T04:15:56;102088.28;;;8.28;72.04
80118;BME280;69424;48.770;-1.564;2024-03-23T04:16:44;102084.04;;;8.28;72.69
80118;BME280;69424;48.770;-1.564;2024-03-23T04:17:32;102084.20;;;8.27;72.83
80118;BME280;69424;48.770;-1.564;2024-03-23T04:18:22;102085.92;;;8.26;72.37
80118;BME280;69424;48.770;-1.564;2024-03-23T04:19:10;102084.29;;;8.25;72.37
80118;BME280;69424;48.770;-1.564;2024-03-23T04:19:58;102084.83;;;8.25;72.54
80118;BME280;69424;48.770;-1.564;2024-03-23T04:20:46;102084.98;;;8.25;72.91
80118;BME280;69424;48.770;-1.564;2024-03-23T04:21:34;102086.25;;;8.25;73.09
80118;BME280;69424;48.770;-1.564;2024-03-23T04:22:22;102086.97;;;8.26;72.63
80118;BME280;69424;48.770;-1.564;2024-03-23T04:23:11;102090.54;;;8.27;72.57
80118;BME280;69424;48.770;-1.564;2024-03-23T04:23:59;102091.79;;;8.28;72.66
80118;BME280;69424;48.770;-1.564;2024-03-23T04:24:47;102089.37;;;8.29;72.68
80118;BME280;69424;48.770;-1.564;2024-03-23T04:25:35;102088.52;;;8.29;72.75
80118;BME280;69424;48.770;-1.564;2024-03-23T04:26:23;102092.23;;;8.30;72.55
80118;BME280;69424;48.770;-1.564;2024-03-23T04:27:11;102093.13;;;8.30;72.01
80118;BME280;69424;48.770;-1.564;2024-03-23T04:27:59;102087.64;;;8.30;71.82
80118;BME280;69424;48.770;-1.564;2024-03-23T04:28:46;102089.38;;;8.29;71.31
80118;BME280;69424;48.770;-1.564;2024-03-23T04:29:34;102086.17;;;8.29;70.93
80118;BME280;69424;48.770;-1.564;2024-03-23T04:30:22;102085.60;;;8.27;70.77
80118;BME280;69424;48.770;-1.564;2024-03-23T04:31:12;102087.85;;;8.26;70.53
80118;BME280;69424;48.770;-1.564;2024-03-23T04:32:00;102081.65;;;8.25;70.43
80118;BME280;69424;48.770;-1.564;2024-03-23T04:32:49;102087.57;;;8.23;70.92
80118;BME280;69424;48.770;-1.564;2024-03-23T04:33:37;102086.65;;;8.22;71.30
80118;BME280;69424;48.770;-1.564;2024-03-23T04:34:24;102084.50;;;8.21;71.53
80118;BME280;69424;48.770;-1.564;2024-03-23T04:35:12;102086.93;;;8.20;72.15
80118;BME280;69424;48.770;-1.564;2024-03-23T04:36:00;102092.73;;;8.20;71.99
80118;BME280;69424;48.770;-1.564;2024-03-23T04:36:48;102096.18;;;8.18;72.21
80118;BME280;69424;48.770;-1.564;2024-03-23T04:37:37;102096.51;;;8.18;71.66
80118;BME280;69424;48.770;-1.564;2024-03-23T04:38:25;102096.15;;;8.18;71.42
80118;BME280;69424;48.770;-1.564;2024-03-23T04:39:13;102095.65;;;8.18;71.66
80118;BME280;69424;48.770;-1.564;2024-03-23T04:40:01;102094.96;;;8.19;72.00
80118;BME280;69424;48.770;-1.564;2024-03-23T04:41:02;102092.39;;;8.20;72.21
80118;BME280;69424;48.770;-1.564;2024-03-23T04:41:50;102092.41;;;8.21;72.75
80118;BME280;69424;48.770;-1.564;2024-03-23T04:42:37;102089.48;;;8.22;72.55
80118;BME280;69424;48.770;-1.564;2024-03-23T04:43:26;102092.36;;;8.24;72.58
80118;BME280;69424;48.770;-1.564;2024-03-23T04:44:14;102097.37;;;8.26;72.54
80118;BME280;69424;48.770;-1.564;2024-03-23T04:45:02;102100.79;;;8.28;72.35
80118;BME280;69424;48.770;-1.564;2024-03-23T04:45:50;102100.42;;;8.28;71.96
80118;BME280;69424;48.770;-1.564;2024-03-23T04:46:37;102105.73;;;8.28;71.32
80118;BME280;69424;48.770;-1.564;2024-03-23T04:47:25;102098.83;;;8.28;70.80
80118;BME280;69424;48.770;-1.564;2024-03-23T04:48:13;102100.42;;;8.27;70.69
80118;BME280;69424;48.770;-1.564;2024-03-23T04:49:01;102095.30;;;8.26;70.61
80118;BME280;69424;48.770;-1.564;2024-03-23T04:49:53;102094.19;;;8.26;70.53
80118;BME280;69424;48.770;-1.564;2024-03-23T04:50:41;102090.65;;;8.25;70.93
80118;BME280;69424;48.770;-1.564;2024-03-23T04:51:35;102088.72;;;8.26;71.12
80118;BME280;69424;48.770;-1.564;2024-03-23T04:52:24;102092.02;;;8.24;71.36
80118;BME280;69424;48.770;-1.564;2024-03-23T04:53:12;102092.50;;;8.23;71.72
80118;BME280;69424;48.770;-1.564;2024-03-23T04:54:00;102095.12;;;8.22;71.82
80118;BME280;69424;48.770;-1.564;2024-03-23T04:54:51;102093.48;;;8.21;72.10
80118;BME280;69424;48.770;-1.564;2024-03-23T04:55:39;102095.23;;;8.21;71.63
80118;BME280;69424;48.770;-1.564;2024-03-23T04:56:27;102094.30;;;8.20;71.52
80118;BME280;69424;48.770;-1.564;2024-03-23T04:57:15;102095.15;;;8.19;71.58
80118;BME280;69424;48.770;-1.564;2024-03-23T04:58:07;102098.42;;;8.17;71.25
80118;BME280;69424;48.770;-1.564;2024-03-23T04:58:54;102092.58;;;8.17;70.77
80118;BME280;69424;48.770;-1.564;2024-03-23T04:59:42;102091.73;;;8.17;70.51
80118;BME280;69424;48.770;-1.564;2024-03-23T05:00:30;102091.59;;;8.18;70.70
80118;BME280;69424;48.770;-1.564;2024-03-23T05:01:18;102089.02;;;8.20;70.78
80118;BME280;69424;48.770;-1.564;2024-03-23T05:02:06;102086.24;;;8.21;71.00
80118;BME280;69424;48.770;-1.564;2024-03-23T05:02:54;102083.66;;;8.22;70.82
80118;BME280;69424;48.770;-1.564;2024-03-23T05:03:42;102087.21;;;8.23;71.13
80118;BME280;69424;48.770;-1.564;2024-03-23T05:04:30;102084.80;;;8.24;71.41
80118;BME280;69424;48.770;-1.564;2024-03-23T05:05:19;102085.36;;;8.25;71.23
80118;BME280;69424;48.770;-1.564;2024-03-23T05:06:07;102085.90;;;8.26;71.62
80118;BME280;69424;48.770;-1.564;2024-03-23T05:06:55;102086.82;;;8.26;71.66
80118;BME280;69424;48.770;-1.564;2024-03-23T05:07:43;102089.83;;;8.27;72.24